sensor_id;sensor_type;location;lat;lon;timestamp;temperature;humidity
78325;DHT22;67584;51.400;6.692;2024-01-10T00:01:59;-3271.30;62.90
78325;DHT22;67584;51.400;6.692;2024-01-10T00:04:25;-3271.30;63.40
78325;DHT22;67584;51.400;6.692;2024-01-10T00:06:50;-3271.30;63.20
78325;DHT22;67584;51.400;6.692;2024-01-10T00:09:16;-3271.20;62.90
78325;DHT22;67584;51.400;6.692;2024-01-10T00:11:42;-3271.10;63.30
78325;DHT22;67584;51.400;6.692;2024-01-10T00:14:07;-3271.20;62.70
78325;DHT22;67584;51.400;6.692;2024-01-10T00:16:34;-3271.30;62.90
78325;DHT22;67584;51.400;6.692;2024-01-10T00:19:00;-3271.30;63.10
78325;DHT22;67584;51.400;6.692;2024-01-10T00:21:26;-3271.30;62.60
78325;DHT22;67584;51.400;6.692;2024-01-10T00:23:52;-3271.40;62.70
78325;DHT22;67584;51.400;6.692;2024-01-10T00:26:18;-3271.30;62.30
78325;DHT22;67584;51.400;6.692;2024-01-10T00:28:43;-3271.40;62.50
78325;DHT22;67584;51.400;6.692;2024-01-10T00:31:14;-3271.40;61.70
78325;DHT22;67584;51.400;6.692;2024-01-10T00:33:40;-3271.40;61.50
78325;DHT22;67584;51.400;6.692;2024-01-10T00:36:06;-3271.30;61.90
78325;DHT22;67584;51.400;6.692;2024-01-10T00:38:32;-3271.30;61.10
78325;DHT22;67584;51.400;6.692;2024-01-10T00:40:58;-3271.40;60.90
78325;DHT22;67584;51.400;6.692;2024-01-10T00:43:24;-3271.40;60.50
78325;DHT22;67584;51.400;6.692;2024-01-10T00:45:50;-3271.40;61.00
78325;DHT22;67584;51.400;6.692;2024-01-10T00:48:16;-3271.40;60.60
78325;DHT22;67584;51.400;6.692;2024-01-10T00:50:43;-3271.40;60.60
78325;DHT22;67584;51.400;6.692;2024-01-10T00:53:10;-3271.40;60.50
78325;DHT22;67584;51.400;6.692;2024-01-10T00:55:35;-3271.60;60.20
78325;DHT22;67584;51.400;6.692;2024-01-10T00:58:01;-3271.50;60.00
78325;DHT22;67584;51.400;6.692;2024-01-10T01:00:27;-3271.50;59.30
78325;DHT22;67584;51.400;6.692;2024-01-10T01:02:53;-3271.50;60.00
78325;DHT22;67584;51.400;6.692;2024-01-10T01:05:18;-3271.50;60.00
78325;DHT22;67584;51.400;6.692;2024-01-10T01:07:44;-3271.50;60.00
78325;DHT22;67584;51.400;6.692;2024-01-10T01:10:09;-3271.40;60.20
78325;DHT22;67584;51.400;6.692;2024-01-10T01:12:35;-3271.30;60.20
78325;DHT22;67584;51.400;6.692;2024-01-10T01:15:01;-3271.40;60.10
78325;DHT22;67584;51.400;6.692;2024-01-10T01:17:27;-3271.40;60.50
78325;DHT22;67584;51.400;6.692;2024-01-10T01:19:52;-3271.30;60.20
78325;DHT22;67584;51.400;6.692;2024-01-10T01:22:18;-3271.50;59.60
78325;DHT22;67584;51.400;6.692;2024-01-10T01:24:44;-3271.40;60.00
78325;DHT22;67584;51.400;6.692;2024-01-10T01:27:09;-3271.40;60.20
78325;DHT22;67584;51.400;6.692;2024-01-10T01:29:35;-3271.30;60.30
78325;DHT22;67584;51.400;6.692;2024-01-10T01:32:01;-3271.30;60.00
78325;DHT22;67584;51.400;6.692;2024-01-10T01:34:27;-3271.30;59.90
78325;DHT22;67584;51.400;6.692;2024-01-10T01:36:53;-3271.20;60.30
78325;DHT22;67584;51.400;6.692;2024-01-10T01:39:19;-3271.20;60.20
78325;DHT22;67584;51.400;6.692;2024-01-10T01:41:44;-3271.30;60.30
78325;DHT22;67584;51.400;6.692;2024-01-10T01:44:10;-3271.20;60.40
78325;DHT22;67584;51.400;6.692;2024-01-10T01:46:36;-3271.20;60.30
78325;DHT22;67584;51.400;6.692;2024-01-10T01:49:04;-3271.10;60.70
78325;DHT22;67584;51.400;6.692;2024-01-10T01:51:31;-3271.20;60.70
78325;DHT22;67584;51.400;6.692;2024-01-10T01:53:57;-3271.20;60.20
78325;DHT22;67584;51.400;6.692;2024-01-10T01:56:23;-3271.20;60.80
78325;DHT22;67584;51.400;6.692;2024-01-10T01:58:53;-3271.10;60.60
78325;DHT22;67584;51.400;6.692;2024-01-10T02:01:19;-3271.10;60.90
78325;DHT22;67584;51.400;6.692;2024-01-10T02:03:48;-3271.10;60.80
78325;DHT22;67584;51.400;6.692;2024-01-10T02:06:14;-3271.00;61.60
78325;DHT22;67584;51.400;6.692;2024-01-10T02:08:39;-3271.00;61.50
78325;DHT22;67584;51.400;6.692;2024-01-10T02:11:05;-3271.00;61.70
78325;DHT22;67584;51.400;6.692;2024-01-10T02:13:32;-3271.00;61.80
78325;DHT22;67584;51.400;6.692;2024-01-10T02:15:59;-3271.10;61.60
78325;DHT22;67584;51.400;6.692;2024-01-10T02:18:24;-3271.10;61.30
78325;DHT22;67584;51.400;6.692;2024-01-10T02:20:50;-3271.10;61.80
78325;DHT22;67584;51.400;6.692;2024-01-10T02:23:17;-3271.10;61.90
78325;DHT22;67584;51.400;6.692;2024-01-10T02:25:43;-3271.10;62.30
78325;DHT22;67584;51.400;6.692;2024-01-10T02:28:09;-3271.00;62.50
78325;DHT22;67584;51.400;6.692;2024-01-10T02:30:35;-3271.10;62.40
78325;DHT22;67584;51.400;6.692;2024-01-10T02:33:01;-3271.00;63.20
78325;DHT22;67584;51.400;6.692;2024-01-10T02:35:27;-3270.90;63.20
78325;DHT22;67584;51.400;6.692;2024-01-10T02:37:53;-3270.80;63.40
78325;DHT22;67584;51.400;6.692;2024-01-10T02:40:20;-3270.80;63.80
78325;DHT22;67584;51.400;6.692;2024-01-10T02:42:46;-3270.90;64.00
78325;DHT22;67584;51.400;6.692;2024-01-10T02:45:12;-3270.70;64.40
78325;DHT22;67584;51.400;6.692;2024-01-10T02:47:38;-3270.80;64.00
78325;DHT22;67584;51.400;6.692;2024-01-10T02:50:05;-3270.80;64.70
78325;DHT22;67584;51.400;6.692;2024-01-10T02:52:31;-3270.80;65.20
78325;DHT22;67584;51.400;6.692;2024-01-10T02:54:56;-3270.70;65.80
78325;DHT22;67584;51.400;6.692;2024-01-10T02:57:22;-3270.70;65.10
78325;DHT22;67584;51.400;6.692;2024-01-10T02:59:48;-3270.60;65.90
78325;DHT22;67584;51.400;6.692;2024-01-10T03:02:13;-3270.60;66.30
78325;DHT22;67584;51.400;6.692;2024-01-10T03:04:39;-3270.50;66.10
78325;DHT22;67584;51.400;6.692;2024-01-10T03:07:05;-3270.40;66.60
78325;DHT22;67584;51.400;6.692;2024-01-10T03:09:31;-3270.50;66.90
78325;DHT22;67584;51.400;6.692;2024-01-10T03:11:57;-3270.40;67.00
78325;DHT22;67584;51.400;6.692;2024-01-10T03:14:22;-3270.20;67.70
78325;DHT22;67584;51.400;6.692;2024-01-10T03:16:48;-3270.20;68.10
78325;DHT22;67584;51.400;6.692;2024-01-10T03:19:14;-3270.30;68.10
78325;DHT22;67584;51.400;6.692;2024-01-10T03:21:39;-3270.40;67.60
78325;DHT22;67584;51.400;6.692;2024-01-10T03:24:05;-3270.40;67.80
78325;DHT22;67584;51.400;6.692;2024-01-10T03:26:31;-3270.40;67.80
78325;DHT22;67584;51.400;6.692;2024-01-10T03:28:57;-3270.30;67.90
78325;DHT22;67584;51.400;6.692;2024-01-10T03:31:23;-3270.30;68.10
78325;DHT22;67584;51.400;6.692;2024-01-10T03:33:48;-3270.20;68.20
78325;DHT22;67584;51.400;6.692;2024-01-10T03:36:17;-3270.30;68.40
78325;DHT22;67584;51.400;6.692;2024-01-10T03:38:44;-3270.30;68.00
78325;DHT22;67584;51.400;6.692;2024-01-10T03:41:17;-3270.20;68.30
78325;DHT22;67584;51.400;6.692;2024-01-10T03:43:43;-3270.20;68.70
78325;DHT22;67584;51.400;6.692;2024-01-10T03:46:09;-3270.20;68.70
78325;DHT22;67584;51.400;6.692;2024-01-10T03:48:35;-3270.30;68.20
78325;DHT22;67584;51.400;6.692;2024-01-10T03:51:01;-3270.30;68.10
78325;DHT22;67584;51.400;6.692;2024-01-10T03:53:27;-3270.30;68.30
78325;DHT22;67584;51.400;6.692;2024-01-10T03:55:53;-3270.20;68.40
78325;DHT22;67584;51.400;6.692;2024-01-10T03:58:19;-3270.20;68.70
78325;DHT22;67584;51.400;6.692;2024-01-10T04:00:45;-3270.20;68.90
78325;DHT22;67584;51.400;6.692;2024-01-10T04:03:11;-3270.20;68.60
78325;DHT22;67584;51.400;6.692;2024-01-10T04:05:36;-3270.30;68.50
78325;DHT22;67584;51.400;6.692;2024-01-10T04:08:02;-3270.30;68.70
78325;DHT22;67584;51.400;6.692;2024-01-10T04:10:29;-3270.20;69.00
78325;DHT22;67584;51.400;6.692;2024-01-10T04:12:55;-3270.20;69.40
78325;DHT22;67584;51.400;6.692;2024-01-10T04:15:21;-3270.40;69.10
78325;DHT22;67584;51.400;6.692;2024-01-10T04:17:46;-3270.30;69.10
78325;DHT22;67584;51.400;6.692;2024-01-10T04:20:13;-3270.20;68.90
78325;DHT22;67584;51.400;6.692;2024-01-10T04:22:38;-3270.20;69.40
78325;DHT22;67584;51.400;6.692;2024-01-10T04:25:06;-3270.20;69.80
78325;DHT22;67584;51.400;6.692;2024-01-10T04:27:32;-3270.20;69.30
78325;DHT22;67584;51.400;6.692;2024-01-10T04:29:58;-3270.20;69.50
78325;DHT22;67584;51.400;6.692;2024-01-10T04:32:24;-3270.20;69.90
78325;DHT22;67584;51.400;6.692;2024-01-10T04:34:50;-3270.10;70.20
78325;DHT22;67584;51.400;6.692;2024-01-10T04:37:16;-3270.00;70.80
78325;DHT22;67584;51.400;6.692;2024-01-10T04:39:41;-3270.00;71.10
78325;DHT22;67584;51.400;6.692;2024-01-10T04:42:08;-3269.90;71.00
78325;DHT22;67584;51.400;6.692;2024-01-10T04:44:36;-3269.90;71.30
78325;DHT22;67584;51.400;6.692;2024-01-10T04:47:02;-3270.00;71.10
78325;DHT22;67584;51.400;6.692;2024-01-10T04:49:28;-3270.00;71.00
78325;DHT22;67584;51.400;6.692;2024-01-10T04:51:53;-3269.90;71.30
78325;DHT22;67584;51.400;6.692;2024-01-10T04:54:19;-3270.00;71.40
78325;DHT22;67584;51.400;6.692;2024-01-10T04:56:46;-3270.00;70.90
78325;DHT22;67584;51.400;6.692;2024-01-10T04:59:11;-3270.00;70.90
78325;DHT22;67584;51.400;6.692;2024-01-10T05:01:37;-3270.00;71.40
78325;DHT22;67584;51.400;6.692;2024-01-10T05:04:03;-3269.90;71.80
78325;DHT22;67584;51.400;6.692;2024-01-10T05:06:29;-3269.90;71.70
78325;DHT22;67584;51.400;6.692;2024-01-10T05:08:54;-3269.90;72.10
78325;DHT22;67584;51.400;6.692;2024-01-10T05:11:24;-3270.00;71.90
78325;DHT22;67584;51.400;6.692;2024-01-10T05:13:51;-3270.00;71.80
78325;DHT22;67584;51.400;6.692;2024-01-10T05:16:17;-3269.90;72.00
78325;DHT22;67584;51.400;6.692;2024-01-10T05:18:43;-3269.80;72.10
78325;DHT22;67584;51.400;6.692;2024-01-10T05:21:09;-3269.90;71.90
78325;DHT22;67584;51.400;6.692;2024-01-10T05:23:35;-3270.00;71.80
78325;DHT22;67584;51.400;6.692;2024-01-10T05:26:02;-3269.90;72.00
78325;DHT22;67584;51.400;6.692;2024-01-10T05:28:28;-3270.00;71.90
78325;DHT22;67584;51.400;6.692;2024-01-10T05:30:53;-3269.90;72.00
78325;DHT22;67584;51.400;6.692;2024-01-10T05:33:19;-3270.00;71.80
78325;DHT22;67584;51.400;6.692;2024-01-10T05:35:45;-3270.00;71.80
78325;DHT22;67584;51.400;6.692;2024-01-10T05:38:11;-3269.90;71.70
78325;DHT22;67584;51.400;6.692;2024-01-10T05:40:37;-3270.00;71.30
78325;DHT22;67584;51.400;6.692;2024-01-10T05:43:02;-3270.00;70.80
78325;DHT22;67584;51.400;6.692;2024-01-10T05:45:28;-3270.20;70.40
78325;DHT22;67584;51.400;6.692;2024-01-10T05:47:54;-3270.20;70.10
78325;DHT22;67584;51.400;6.692;2024-01-10T05:50:20;-3270.20;69.70
78325;DHT22;67584;51.400;6.692;2024-01-10T05:52:47;-3270.20;69.50
78325;DHT22;67584;51.400;6.692;2024-01-10T05:55:12;-3270.20;69.40
78325;DHT22;67584;51.400;6.692;2024-01-10T05:57:38;-3270.20;69.50
78325;DHT22;67584;51.400;6.692;2024-01-10T06:00:05;-3270.20;69.40
78325;DHT22;67584;51.400;6.692;2024-01-10T06:02:41;-3270.30;69.30
78325;DHT22;67584;51.400;6.692;2024-01-10T06:05:10;-3270.20;69.20
78325;DHT22;67584;51.400;6.692;2024-01-10T06:07:37;-3270.30;69.00
78325;DHT22;67584;51.400;6.692;2024-01-10T06:10:03;-3270.20;69.30
78325;DHT22;67584;51.400;6.692;2024-01-10T06:12:29;-3270.20;69.40
78325;DHT22;67584;51.400;6.692;2024-01-10T06:14:55;-3270.20;69.30
78325;DHT22;67584;51.400;6.692;2024-01-10T06:17:21;-3270.20;69.50
78325;DHT22;67584;51.400;6.692;2024-01-10T06:19:47;-3270.20;69.00
78325;DHT22;67584;51.400;6.692;2024-01-10T06:22:13;-3270.30;69.10
78325;DHT22;67584;51.400;6.692;2024-01-10T06:24:39;-3270.30;69.00
78325;DHT22;67584;51.400;6.692;2024-01-10T06:27:05;-3270.40;68.60
78325;DHT22;67584;51.400;6.692;2024-01-10T06:29:31;-3270.30;67.70
78325;DHT22;67584;51.400;6.692;2024-01-10T06:31:57;-3270.30;68.10
78325;DHT22;67584;51.400;6.692;2024-01-10T06:34:24;-3270.30;68.00
78325;DHT22;67584;51.400;6.692;2024-01-10T06:36:50;-3270.40;67.80
78325;DHT22;67584;51.400;6.692;2024-01-10T06:39:15;-3270.40;67.50
78325;DHT22;67584;51.400;6.692;2024-01-10T06:41:42;-3270.50;67.60
78325;DHT22;67584;51.400;6.692;2024-01-10T06:44:08;-3270.40;67.60
78325;DHT22;67584;51.400;6.692;2024-01-10T06:46:34;-3270.30;67.80
78325;DHT22;67584;51.400;6.692;2024-01-10T06:49:00;-3270.30;67.80
78325;DHT22;67584;51.400;6.692;2024-01-10T06:51:29;-3270.50;67.80
78325;DHT22;67584;51.400;6.692;2024-01-10T06:53:55;-3270.40;67.60
78325;DHT22;67584;51.400;6.692;2024-01-10T06:56:28;-3270.50;67.60
78325;DHT22;67584;51.400;6.692;2024-01-10T06:58:54;-3270.50;67.50
78325;DHT22;67584;51.400;6.692;2024-01-10T07:01:20;-3270.40;67.50
78325;DHT22;67584;51.400;6.692;2024-01-10T07:03:47;-3270.40;67.90
78325;DHT22;67584;51.400;6.692;2024-01-10T07:06:13;-3270.40;68.10
78325;DHT22;67584;51.400;6.692;2024-01-10T07:08:40;-3270.40;68.00
78325;DHT22;67584;51.400;6.692;2024-01-10T07:11:08;-3270.30;67.90
78325;DHT22;67584;51.400;6.692;2024-01-10T07:13:34;-3270.40;68.40
78325;DHT22;67584;51.400;6.692;2024-01-10T07:15:59;-3270.30;68.60
78325;DHT22;67584;51.400;6.692;2024-01-10T07:18:28;-3270.30;68.20
78325;DHT22;67584;51.400;6.692;2024-01-10T07:20:54;-3270.30;68.50
78325;DHT22;67584;51.400;6.692;2024-01-10T07:23:20;-3270.40;68.40
78325;DHT22;67584;51.400;6.692;2024-01-10T07:25:46;-3270.40;68.20
78325;DHT22;67584;51.400;6.692;2024-01-10T07:28:11;-3270.30;68.70
78325;DHT22;67584;51.400;6.692;2024-01-10T07:30:37;-3270.30;69.00
78325;DHT22;67584;51.400;6.692;2024-01-10T07:33:03;-3270.30;68.80
78325;DHT22;67584;51.400;6.692;2024-01-10T07:35:29;-3270.20;69.10
78325;DHT22;67584;51.400;6.692;2024-01-10T07:37:55;-3270.30;69.10
78325;DHT22;67584;51.400;6.692;2024-01-10T07:40:21;-3270.40;68.80
78325;DHT22;67584;51.400;6.692;2024-01-10T07:42:48;-3270.40;68.80
78325;DHT22;67584;51.400;6.692;2024-01-10T07:45:13;-3270.40;68.50
78325;DHT22;67584;51.400;6.692;2024-01-10T07:47:39;-3270.40;69.10
78325;DHT22;67584;51.400;6.692;2024-01-10T07:50:09;-3270.40;68.80
78325;DHT22;67584;51.400;6.692;2024-01-10T07:52:36;-3270.40;69.00
78325;DHT22;67584;51.400;6.692;2024-01-10T07:55:02;-3270.40;69.00
78325;DHT22;67584;51.400;6.692;2024-01-10T07:57:35;-3270.40;68.80
78325;DHT22;67584;51.400;6.692;2024-01-10T08:00:03;-3270.60;68.30
78325;DHT22;67584;51.400;6.692;2024-01-10T08:02:34;-3270.60;68.10
78325;DHT22;67584;51.400;6.692;2024-01-10T08:05:01;-3270.70;68.10
78325;DHT22;67584;51.400;6.692;2024-01-10T08:07:31;-3270.60;67.70
78325;DHT22;67584;51.400;6.692;2024-01-10T08:10:01;-3270.70;67.80
78325;DHT22;67584;51.400;6.692;2024-01-10T08:12:27;-3270.80;67.70
78325;DHT22;67584;51.400;6.692;2024-01-10T08:14:53;-3270.80;67.50
78325;DHT22;67584;51.400;6.692;2024-01-10T08:17:19;-3270.70;67.50
78325;DHT22;67584;51.400;6.692;2024-01-10T08:19:45;-3270.80;67.40
78325;DHT22;67584;51.400;6.692;2024-01-10T08:22:10;-3270.80;67.50
78325;DHT22;67584;51.400;6.692;2024-01-10T08:24:38;-3270.90;67.30
78325;DHT22;67584;51.400;6.692;2024-01-10T08:27:03;-3270.90;67.40
78325;DHT22;67584;51.400;6.692;2024-01-10T08:29:29;-3271.00;66.70
78325;DHT22;67584;51.400;6.692;2024-01-10T08:31:57;-3271.10;66.60
78325;DHT22;67584;51.400;6.692;2024-01-10T08:34:23;-3271.10;66.50
78325;DHT22;67584;51.400;6.692;2024-01-10T08:36:49;-3271.10;66.60
78325;DHT22;67584;51.400;6.692;2024-01-10T08:39:16;-3271.20;66.10
78325;DHT22;67584;51.400;6.692;2024-01-10T08:41:42;-3271.30;65.70
78325;DHT22;67584;51.400;6.692;2024-01-10T08:44:13;-3271.40;65.30
78325;DHT22;67584;51.400;6.692;2024-01-10T08:46:39;-3271.50;64.90
78325;DHT22;67584;51.400;6.692;2024-01-10T08:49:04;-3271.60;64.80
78325;DHT22;67584;51.400;6.692;2024-01-10T08:51:30;-3271.70;64.80
78325;DHT22;67584;51.400;6.692;2024-01-10T08:53:56;-3271.70;64.20
78325;DHT22;67584;51.400;6.692;2024-01-10T08:56:22;-3271.80;64.20
78325;DHT22;67584;51.400;6.692;2024-01-10T08:58:48;-3271.90;64.50
78325;DHT22;67584;51.400;6.692;2024-01-10T09:01:14;-3271.90;63.70
78325;DHT22;67584;51.400;6.692;2024-01-10T09:03:39;-3272.00;63.50
78325;DHT22;67584;51.400;6.692;2024-01-10T09:06:05;-3272.00;63.60
78325;DHT22;67584;51.400;6.692;2024-01-10T09:08:34;-3272.10;62.80
78325;DHT22;67584;51.400;6.692;2024-01-10T09:10:59;-3272.20;62.90
78325;DHT22;67584;51.400;6.692;2024-01-10T09:13:25;-3272.30;62.70
78325;DHT22;67584;51.400;6.692;2024-01-10T09:15:51;-3272.50;62.10
78325;DHT22;67584;51.400;6.692;2024-01-10T09:18:17;-3273.10;61.60
78325;DHT22;67584;51.400;6.692;2024-01-10T09:20:43;-3274.40;57.40
78325;DHT22;67584;51.400;6.692;2024-01-10T09:23:08;-3275.00;54.40
78325;DHT22;67584;51.400;6.692;2024-01-10T09:25:36;-3274.50;54.90
78325;DHT22;67584;51.400;6.692;2024-01-10T09:28:01;-3275.10;54.50
78325;DHT22;67584;51.400;6.692;2024-01-10T09:30:27;-3276.30;51.70
78325;DHT22;67584;51.400;6.692;2024-01-10T09:32:53;0.70;48.50
78325;DHT22;67584;51.400;6.692;2024-01-10T09:35:18;1.50;46.00
78325;DHT22;67584;51.400;6.692;2024-01-10T09:37:44;2.10;44.60
78325;DHT22;67584;51.400;6.692;2024-01-10T09:40:14;2.20;43.20
78325;DHT22;67584;51.400;6.692;2024-01-10T09:42:40;2.50;43.10
78325;DHT22;67584;51.400;6.692;2024-01-10T09:45:07;2.10;43.40
78325;DHT22;67584;51.400;6.692;2024-01-10T09:47:35;2.80;42.10
78325;DHT22;67584;51.400;6.692;2024-01-10T09:50:01;3.40;41.50
78325;DHT22;67584;51.400;6.692;2024-01-10T09:52:33;3.50;40.00
78325;DHT22;67584;51.400;6.692;2024-01-10T09:55:00;3.70;39.70
78325;DHT22;67584;51.400;6.692;2024-01-10T09:57:26;4.20;38.70
78325;DHT22;67584;51.400;6.692;2024-01-10T09:59:53;4.40;38.00
78325;DHT22;67584;51.400;6.692;2024-01-10T10:02:23;5.10;37.30
78325;DHT22;67584;51.400;6.692;2024-01-10T10:04:56;5.90;36.00
78325;DHT22;67584;51.400;6.692;2024-01-10T10:07:24;5.90;35.50
78325;DHT22;67584;51.400;6.692;2024-01-10T10:09:50;5.90;35.20
78325;DHT22;67584;51.400;6.692;2024-01-10T10:12:19;5.90;35.00
78325;DHT22;67584;51.400;6.692;2024-01-10T10:14:44;6.00;35.30
78325;DHT22;67584;51.400;6.692;2024-01-10T10:17:17;5.60;35.40
78325;DHT22;67584;51.400;6.692;2024-01-10T10:19:43;5.60;35.10
78325;DHT22;67584;51.400;6.692;2024-01-10T10:22:13;5.30;35.80
78325;DHT22;67584;51.400;6.692;2024-01-10T10:24:39;5.40;36.00
78325;DHT22;67584;51.400;6.692;2024-01-10T10:27:08;6.10;34.80
78325;DHT22;67584;51.400;6.692;2024-01-10T10:29:36;6.70;34.20
78325;DHT22;67584;51.400;6.692;2024-01-10T10:32:03;7.00;34.00
78325;DHT22;67584;51.400;6.692;2024-01-10T10:34:32;7.70;32.60
78325;DHT22;67584;51.400;6.692;2024-01-10T10:36:58;8.00;31.80
78325;DHT22;67584;51.400;6.692;2024-01-10T10:39:25;8.20;32.20
78325;DHT22;67584;51.400;6.692;2024-01-10T10:41:51;7.90;32.40
78325;DHT22;67584;51.400;6.692;2024-01-10T10:44:23;8.10;32.50
78325;DHT22;67584;51.400;6.692;2024-01-10T10:46:51;8.20;31.60
78325;DHT22;67584;51.400;6.692;2024-01-10T10:49:18;8.70;31.10
78325;DHT22;67584;51.400;6.692;2024-01-10T10:51:48;8.90;31.00
78325;DHT22;67584;51.400;6.692;2024-01-10T10:54:14;8.70;31.40
78325;DHT22;67584;51.400;6.692;2024-01-10T10:56:43;9.10;30.50
78325;DHT22;67584;51.400;6.692;2024-01-10T10:59:12;9.20;29.80
78325;DHT22;67584;51.400;6.692;2024-01-10T11:01:39;9.00;30.40
78325;DHT22;67584;51.400;6.692;2024-01-10T11:04:05;8.90;30.50
78325;DHT22;67584;51.400;6.692;2024-01-10T11:06:32;9.10;30.20
78325;DHT22;67584;51.400;6.692;2024-01-10T11:09:05;9.50;30.00
78325;DHT22;67584;51.400;6.692;2024-01-10T11:20:15;11.30;27.70
78325;DHT22;67584;51.400;6.692;2024-01-10T11:25:30;11.10;28.00
78325;DHT22;67584;51.400;6.692;2024-01-10T11:27:56;11.20;28.30
78325;DHT22;67584;51.400;6.692;2024-01-10T11:30:35;11.60;27.80
78325;DHT22;67584;51.400;6.692;2024-01-10T11:33:22;12.50;27.20
78325;DHT22;67584;51.400;6.692;2024-01-10T11:38:41;12.40;26.90
78325;DHT22;67584;51.400;6.692;2024-01-10T11:41:10;12.40;26.60
78325;DHT22;67584;51.400;6.692;2024-01-10T11:43:38;12.50;26.30
78325;DHT22;67584;51.400;6.692;2024-01-10T11:46:05;12.20;26.80
78325;DHT22;67584;51.400;6.692;2024-01-10T11:48:32;11.70;27.30
78325;DHT22;67584;51.400;6.692;2024-01-10T11:50:59;12.10;26.80
78325;DHT22;67584;51.400;6.692;2024-01-10T11:53:39;12.10;27.10
78325;DHT22;67584;51.400;6.692;2024-01-10T11:56:15;12.80;26.30
78325;DHT22;67584;51.400;6.692;2024-01-10T11:59:05;12.70;26.30
78325;DHT22;67584;51.400;6.692;2024-01-10T12:01:35;12.90;26.00
78325;DHT22;67584;51.400;6.692;2024-01-10T12:04:01;13.20;26.30
78325;DHT22;67584;51.400;6.692;2024-01-10T12:06:27;14.20;25.40
78325;DHT22;67584;51.400;6.692;2024-01-10T12:08:53;14.40;24.50
78325;DHT22;67584;51.400;6.692;2024-01-10T12:11:19;14.20;24.50
78325;DHT22;67584;51.400;6.692;2024-01-10T12:13:45;13.70;25.10
78325;DHT22;67584;51.400;6.692;2024-01-10T12:16:12;13.50;25.40
78325;DHT22;67584;51.400;6.692;2024-01-10T12:18:39;13.10;25.90
78325;DHT22;67584;51.400;6.692;2024-01-10T12:21:05;12.90;25.80
78325;DHT22;67584;51.400;6.692;2024-01-10T12:23:31;13.10;26.50
78325;DHT22;67584;51.400;6.692;2024-01-10T12:26:04;13.50;25.60
78325;DHT22;67584;51.400;6.692;2024-01-10T12:28:36;13.60;25.30
78325;DHT22;67584;51.400;6.692;2024-01-10T12:31:03;13.60;25.30
78325;DHT22;67584;51.400;6.692;2024-01-10T12:33:30;13.70;25.40
78325;DHT22;67584;51.400;6.692;2024-01-10T12:36:07;14.00;24.80
78325;DHT22;67584;51.400;6.692;2024-01-10T12:38:33;13.70;25.30
78325;DHT22;67584;51.400;6.692;2024-01-10T12:41:00;14.00;25.70
78325;DHT22;67584;51.400;6.692;2024-01-10T12:43:26;14.70;24.70
78325;DHT22;67584;51.400;6.692;2024-01-10T12:46:09;14.60;24.50
78325;DHT22;67584;51.400;6.692;2024-01-10T12:48:39;13.50;25.90
78325;DHT22;67584;51.400;6.692;2024-01-10T12:51:12;13.30;25.90
78325;DHT22;67584;51.400;6.692;2024-01-10T12:53:40;13.40;26.30
78325;DHT22;67584;51.400;6.692;2024-01-10T12:56:07;13.80;25.50
78325;DHT22;67584;51.400;6.692;2024-01-10T12:58:37;14.10;24.90
78325;DHT22;67584;51.400;6.692;2024-01-10T13:01:03;14.10;25.20
78325;DHT22;67584;51.400;6.692;2024-01-10T13:03:29;14.50;24.10
78325;DHT22;67584;51.400;6.692;2024-01-10T13:05:55;14.40;24.80
78325;DHT22;67584;51.400;6.692;2024-01-10T13:08:21;13.50;25.80
78325;DHT22;67584;51.400;6.692;2024-01-10T13:10:47;12.40;26.40
78325;DHT22;67584;51.400;6.692;2024-01-10T13:13:14;11.30;27.70
78325;DHT22;67584;51.400;6.692;2024-01-10T13:15:40;11.30;27.90
78325;DHT22;67584;51.400;6.692;2024-01-10T13:18:06;11.60;27.70
78325;DHT22;67584;51.400;6.692;2024-01-10T13:20:32;11.30;27.20
78325;DHT22;67584;51.400;6.692;2024-01-10T13:22:58;10.80;28.00
78325;DHT22;67584;51.400;6.692;2024-01-10T13:25:23;10.20;28.70
78325;DHT22;67584;51.400;6.692;2024-01-10T13:27:53;9.60;29.30
78325;DHT22;67584;51.400;6.692;2024-01-10T13:30:19;8.10;31.20
78325;DHT22;67584;51.400;6.692;2024-01-10T13:32:45;6.50;33.70
78325;DHT22;67584;51.400;6.692;2024-01-10T13:35:16;5.10;34.90
78325;DHT22;67584;51.400;6.692;2024-01-10T13:40:12;3.50;38.40
78325;DHT22;67584;51.400;6.692;2024-01-10T13:42:42;3.30;39.80
78325;DHT22;67584;51.400;6.692;2024-01-10T13:45:09;3.10;40.90
78325;DHT22;67584;51.400;6.692;2024-01-10T13:47:39;2.80;41.00
78325;DHT22;67584;51.400;6.692;2024-01-10T13:50:07;2.80;42.00
78325;DHT22;67584;51.400;6.692;2024-01-10T13:52:37;2.50;42.50
78325;DHT22;67584;51.400;6.692;2024-01-10T13:55:03;2.10;42.50
78325;DHT22;67584;51.400;6.692;2024-01-10T13:57:32;2.00;44.00
78325;DHT22;67584;51.400;6.692;2024-01-10T13:59:59;2.00;44.20
78325;DHT22;67584;51.400;6.692;2024-01-10T14:02:25;2.00;44.60
78325;DHT22;67584;51.400;6.692;2024-01-10T14:04:52;2.00;45.10
78325;DHT22;67584;51.400;6.692;2024-01-10T14:07:19;1.90;44.30
78325;DHT22;67584;51.400;6.692;2024-01-10T14:09:46;1.90;44.40
78325;DHT22;67584;51.400;6.692;2024-01-10T14:12:12;1.60;45.00
78325;DHT22;67584;51.400;6.692;2024-01-10T14:14:38;1.70;45.70
78325;DHT22;67584;51.400;6.692;2024-01-10T14:17:05;1.70;45.90
78325;DHT22;67584;51.400;6.692;2024-01-10T14:19:30;1.40;45.40
78325;DHT22;67584;51.400;6.692;2024-01-10T14:21:57;1.70;46.60
78325;DHT22;67584;51.400;6.692;2024-01-10T14:24:23;1.40;46.40
78325;DHT22;67584;51.400;6.692;2024-01-10T14:26:50;1.30;46.60
78325;DHT22;67584;51.400;6.692;2024-01-10T14:29:16;1.50;46.90
78325;DHT22;67584;51.400;6.692;2024-01-10T14:31:41;1.50;48.20
78325;DHT22;67584;51.400;6.692;2024-01-10T14:34:07;1.60;47.60
78325;DHT22;67584;51.400;6.692;2024-01-10T14:36:33;1.80;47.10
78325;DHT22;67584;51.400;6.692;2024-01-10T14:38:59;1.50;48.00
78325;DHT22;67584;51.400;6.692;2024-01-10T14:41:25;1.60;48.10
78325;DHT22;67584;51.400;6.692;2024-01-10T14:43:51;1.40;48.00
78325;DHT22;67584;51.400;6.692;2024-01-10T14:46:17;1.40;47.20
78325;DHT22;67584;51.400;6.692;2024-01-10T14:48:42;1.20;47.00
78325;DHT22;67584;51.400;6.692;2024-01-10T14:51:08;1.30;47.30
78325;DHT22;67584;51.400;6.692;2024-01-10T14:53:34;1.20;47.80
78325;DHT22;67584;51.400;6.692;2024-01-10T14:56:03;1.30;48.20
78325;DHT22;67584;51.400;6.692;2024-01-10T14:58:29;1.30;47.40
78325;DHT22;67584;51.400;6.692;2024-01-10T15:00:55;1.10;48.10
78325;DHT22;67584;51.400;6.692;2024-01-10T15:03:23;1.30;48.70
78325;DHT22;67584;51.400;6.692;2024-01-10T15:05:51;1.30;48.50
78325;DHT22;67584;51.400;6.692;2024-01-10T15:08:19;1.30;49.20
78325;DHT22;67584;51.400;6.692;2024-01-10T15:10:45;1.00;48.40
78325;DHT22;67584;51.400;6.692;2024-01-10T15:13:11;0.90;48.90
78325;DHT22;67584;51.400;6.692;2024-01-10T15:15:38;0.70;50.00
78325;DHT22;67584;51.400;6.692;2024-01-10T15:18:04;0.60;50.00
78325;DHT22;67584;51.400;6.692;2024-01-10T15:20:30;0.30;49.60
78325;DHT22;67584;51.400;6.692;2024-01-10T15:22:56;0.20;50.70